createdAt,value
2018-05-01T00:00:15.731Z,0.00
2018-05-01T00:01:15.747Z,0.00
2018-05-01T00:02:15.766Z,0.00
2018-05-01T00:03:15.792Z,0.00
2018-05-01T00:04:15.809Z,0.00
2018-05-01T00:05:15.830Z,0.00
2018-05-01T00:06:15.849Z,0.00
2018-05-01T00:07:15.864Z,0.00
2018-05-01T00:08:15.887Z,0.00
2018-05-01T00:09:15.906Z,0.00
2018-05-01T00:10:15.921Z,0.00
2018-05-01T00:11:15.945Z,0.00
2018-05-01T00:12:15.966Z,0.00
2018-05-01T00:13:15.982Z,0.00
2018-05-01T00:14:16.001Z,0.00
2018-05-01T00:15:16.021Z,0.00
2018-05-01T00:16:16.039Z,0.00
2018-05-01T00:17:16.057Z,0.00
2018-05-01T00:18:16.084Z,0.00
2018-05-01T00:19:16.099Z,0.00
2018-05-01T00:20:16.123Z,0.00
2018-05-01T00:21:16.137Z,0.00
2018-05-01T00:22:16.160Z,0.00
2018-05-01T00:23:16.176Z,0.00
2018-05-01T00:24:16.190Z,0.00
2018-05-01T00:25:16.215Z,0.00
2018-05-01T00:26:16.231Z,0.00
2018-05-01T00:27:16.261Z,0.00
2018-05-01T00:28:16.274Z,0.00
2018-05-01T00:29:16.307Z,0.00
2018-05-01T00:30:16.313Z,0.00
2018-05-01T00:31:16.331Z,0.00
2018-05-01T00:32:16.350Z,0.00
2018-05-01T00:33:16.376Z,0.00
2018-05-01T00:34:16.382Z,0.00
2018-05-01T00:35:16.414Z,0.00
2018-05-01T00:36:16.440Z,0.00
2018-05-01T00:37:16.445Z,0.00
2018-05-01T00:38:16.462Z,0.00
2018-05-01T00:39:16.488Z,0.00
2018-05-01T00:40:16.508Z,0.00
2018-05-01T00:41:16.524Z,0.00
2018-05-01T00:42:16.542Z,0.00
2018-05-01T00:43:16.559Z,0.00
2018-05-01T00:44:16.583Z,0.00
2018-05-01T00:45:16.599Z,0.00
2018-05-01T00:46:16.619Z,0.00
2018-05-01T00:47:16.636Z,0.00
2018-05-01T00:48:16.657Z,0.00
2018-05-01T00:49:16.674Z,0.00
2018-05-01T00:50:16.693Z,0.00
2018-05-01T00:51:16.712Z,0.00
2018-05-01T00:52:16.734Z,0.00
2018-05-01T00:53:16.756Z,0.00
2018-05-01T00:54:16.770Z,0.00
2018-05-01T00:55:16.791Z,0.00
2018-05-01T00:56:16.819Z,0.00
2018-05-01T00:57:16.833Z,0.00
2018-05-01T00:58:16.845Z,0.00
2018-05-01T00:59:16.862Z,0.00
2018-05-01T01:00:16.884Z,0.00
2018-05-01T01:01:16.906Z,0.00
2018-05-01T01:02:16.927Z,0.00
2018-05-01T01:03:16.946Z,0.00
2018-05-01T01:04:16.969Z,0.00
2018-05-01T01:05:16.979Z,0.00
2018-05-01T01:06:17.006Z,0.00
2018-05-01T01:07:17.023Z,0.00
2018-05-01T01:08:17.043Z,0.00
2018-05-01T01:09:17.063Z,0.00
2018-05-01T01:10:17.080Z,0.00
2018-05-01T01:11:17.108Z,0.00
2018-05-01T01:12:17.114Z,0.00
2018-05-01T01:13:17.137Z,0.00
2018-05-01T01:14:17.157Z,0.00
2018-05-01T01:15:17.176Z,0.00
2018-05-01T01:16:17.196Z,0.00
2018-05-01T01:17:17.213Z,0.00
2018-05-01T01:18:17.288Z,0.00
2018-05-01T01:19:17.264Z,0.00
2018-05-01T01:20:17.273Z,0.00
2018-05-01T01:21:17.292Z,0.00
2018-05-01T01:22:17.313Z,0.00
2018-05-01T01:23:17.337Z,0.00
2018-05-01T01:24:17.355Z,0.00
2018-05-01T01:25:17.368Z,0.00
2018-05-01T01:26:17.388Z,0.00
2018-05-01T01:27:17.412Z,0.00
2018-05-01T01:28:17.423Z,0.00
2018-05-01T01:29:17.448Z,0.00
2018-05-01T01:30:17.472Z,0.00
2018-05-01T01:31:17.496Z,0.00
2018-05-01T01:32:17.509Z,0.00
2018-05-01T01:33:17.521Z,0.00
2018-05-01T01:34:17.540Z,0.00
2018-05-01T01:35:17.563Z,0.00
2018-05-01T01:36:17.578Z,0.00
2018-05-01T01:37:17.602Z,0.00
2018-05-01T01:38:17.619Z,0.00
2018-05-01T01:39:17.639Z,0.00
2018-05-01T01:40:17.668Z,0.00
2018-05-01T01:41:17.677Z,0.00
2018-05-01T01:42:17.703Z,0.00
2018-05-01T01:43:17.718Z,0.00
2018-05-01T01:44:17.742Z,0.00
2018-05-01T01:45:17.755Z,0.00
2018-05-01T01:46:17.771Z,0.00
2018-05-01T01:47:17.805Z,0.00
2018-05-01T01:48:17.806Z,0.00
2018-05-01T01:49:17.842Z,0.00
2018-05-01T01:50:17.852Z,0.00
2018-05-01T01:51:17.872Z,0.00
2018-05-01T01:52:17.889Z,0.00
2018-05-01T01:53:17.908Z,0.00
2018-05-01T01:54:17.936Z,0.00
2018-05-01T01:55:17.939Z,0.00
2018-05-01T01:56:17.964Z,0.00
2018-05-01T01:57:17.989Z,0.00
2018-05-01T01:58:18.001Z,0.00
2018-05-01T01:59:18.018Z,0.00
2018-05-01T02:00:18.040Z,0.00
2018-05-01T02:01:18.061Z,0.00
2018-05-01T02:02:18.085Z,0.00
2018-05-01T02:03:18.096Z,0.00
2018-05-01T02:04:18.123Z,0.00
2018-05-01T02:05:18.143Z,0.00
2018-05-01T02:06:18.162Z,0.00
2018-05-01T02:07:18.183Z,0.00
2018-05-01T02:08:18.197Z,0.00
2018-05-01T02:09:18.214Z,0.00
2018-05-01T02:10:18.231Z,0.00
2018-05-01T02:11:18.252Z,0.00
2018-05-01T02:12:18.271Z,0.00
2018-05-01T02:13:18.284Z,0.00
2018-05-01T02:14:18.310Z,0.00
2018-05-01T02:15:18.329Z,0.00
2018-05-01T02:16:18.351Z,0.00
2018-05-01T02:17:18.364Z,0.00
2018-05-01T02:18:18.388Z,0.00
2018-05-01T02:19:18.414Z,0.00
2018-05-01T02:20:18.421Z,0.00
2018-05-01T02:21:18.438Z,0.00
2018-05-01T02:22:18.455Z,0.00
2018-05-01T02:23:18.476Z,0.00
2018-05-01T02:24:18.495Z,0.00
2018-05-01T02:25:18.515Z,0.00
2018-05-01T02:26:18.547Z,0.00
2018-05-01T02:27:18.566Z,0.00
2018-05-01T02:28:18.575Z,0.00
2018-05-01T02:29:18.599Z,0.00
2018-05-01T02:30:18.623Z,0.00
2018-05-01T02:31:18.631Z,0.00
2018-05-01T02:32:18.653Z,0.00
2018-05-01T02:33:18.669Z,0.00
2018-05-01T02:34:18.692Z,0.00
2018-05-01T02:35:18.711Z,0.00
2018-05-01T02:36:18.725Z,0.00
2018-05-01T02:37:18.748Z,0.00
2018-05-01T02:38:18.764Z,0.00
2018-05-01T02:39:18.783Z,0.00
2018-05-01T02:40:18.802Z,0.00
2018-05-01T02:41:18.883Z,0.00
2018-05-01T02:42:18.841Z,0.00
2018-05-01T02:43:18.861Z,0.00
2018-05-01T02:44:18.882Z,0.00
2018-05-01T02:45:18.898Z,0.00
2018-05-01T02:46:18.917Z,0.00
2018-05-01T02:47:18.939Z,0.00
2018-05-01T02:48:18.958Z,0.00
2018-05-01T02:49:18.974Z,0.00
2018-05-01T02:50:18.992Z,0.00
2018-05-01T02:51:19.016Z,0.00
2018-05-01T02:52:19.029Z,0.00
2018-05-01T02:53:19.050Z,0.00
2018-05-01T02:54:19.066Z,0.00
2018-05-01T02:55:19.084Z,0.00
2018-05-01T02:56:19.118Z,0.00
2018-05-01T02:57:19.127Z,0.00
2018-05-01T02:58:19.153Z,0.00
2018-05-01T02:59:19.166Z,0.00
2018-05-01T03:00:19.179Z,0.00
2018-05-01T03:01:19.198Z,0.00
2018-05-01T03:02:19.215Z,0.00
2018-05-01T03:03:19.255Z,0.00
2018-05-01T03:04:19.266Z,0.00
2018-05-01T03:05:19.277Z,0.00
2018-05-01T03:06:19.291Z,0.00
2018-05-01T03:07:19.318Z,0.00
2018-05-01T03:08:19.339Z,0.00
2018-05-01T03:09:19.350Z,0.00
2018-05-01T03:10:19.361Z,0.00
2018-05-01T03:11:19.389Z,0.00
2018-05-01T03:12:19.406Z,0.00
2018-05-01T03:13:19.424Z,0.00
2018-05-01T03:14:19.440Z,0.00
2018-05-01T03:15:19.459Z,0.00
2018-05-01T03:16:19.478Z,0.00
2018-05-01T03:17:19.492Z,0.00
2018-05-01T03:18:19.526Z,0.00
2018-05-01T03:19:19.535Z,0.00
2018-05-01T03:20:19.551Z,0.00
2018-05-01T03:21:19.571Z,0.00
2018-05-01T03:22:19.603Z,0.00
2018-05-01T03:23:19.612Z,0.00
2018-05-01T03:24:19.626Z,0.00
2018-05-01T03:25:19.662Z,0.00
2018-05-01T03:26:19.662Z,0.00
2018-05-01T03:27:19.685Z,0.00
2018-05-01T03:28:19.701Z,0.00
2018-05-01T03:29:19.725Z,0.00
2018-05-01T03:30:19.747Z,0.00
2018-05-01T03:31:19.754Z,0.00
2018-05-01T03:32:19.778Z,0.00
2018-05-01T03:33:19.794Z,0.00
2018-05-01T03:34:19.818Z,0.00
2018-05-01T03:35:19.838Z,0.00
2018-05-01T03:36:19.850Z,0.00
2018-05-01T03:37:19.864Z,0.00
2018-05-01T03:38:19.895Z,0.00
2018-05-01T03:39:19.989Z,0.00
2018-05-01T03:40:19.925Z,0.00
2018-05-01T03:41:19.942Z,0.00
2018-05-01T03:42:19.960Z,0.00
2018-05-01T03:43:19.988Z,0.00
2018-05-01T03:44:20.001Z,0.00
2018-05-01T03:45:20.017Z,0.00
2018-05-01T03:46:20.037Z,0.00
2018-05-01T03:47:20.057Z,0.00
2018-05-01T03:48:20.078Z,0.00
2018-05-01T03:49:20.091Z,0.00
2018-05-01T03:50:20.106Z,0.00
2018-05-01T03:51:20.133Z,0.00
2018-05-01T03:52:20.156Z,0.00
2018-05-01T03:53:20.173Z,0.00
2018-05-01T03:54:20.181Z,0.00
2018-05-01T03:55:20.203Z,0.00
2018-05-01T03:56:20.227Z,0.00
2018-05-01T03:57:20.246Z,0.00
2018-05-01T03:58:20.259Z,0.00
2018-05-01T03:59:20.278Z,0.00
2018-05-01T04:00:20.298Z,0.00
2018-05-01T04:01:20.327Z,0.00
2018-05-01T04:02:20.342Z,0.00
2018-05-01T04:03:20.345Z,0.00
2018-05-01T04:04:20.365Z,0.00
2018-05-01T04:05:20.391Z,0.00
2018-05-01T04:06:20.400Z,0.00
2018-05-01T04:07:20.428Z,0.00
2018-05-01T04:08:20.443Z,0.00
2018-05-01T04:09:20.458Z,0.00
2018-05-01T04:10:20.476Z,0.00
2018-05-01T04:11:20.496Z,0.00
2018-05-01T04:12:20.518Z,0.00
2018-05-01T04:13:20.536Z,0.00
2018-05-01T04:14:20.554Z,0.00
2018-05-01T04:15:20.570Z,0.00
2018-05-01T04:16:20.589Z,0.00
2018-05-01T04:17:20.607Z,0.00
2018-05-01T04:18:20.666Z,0.00
2018-05-01T04:19:20.654Z,0.00
2018-05-01T04:20:20.665Z,0.00
2018-05-01T04:21:20.681Z,0.00
2018-05-01T04:22:20.702Z,0.00
2018-05-01T04:23:20.725Z,0.00
2018-05-01T04:24:20.735Z,0.00
2018-05-01T04:25:20.817Z,0.00
2018-05-01T04:26:20.770Z,0.00
2018-05-01T04:27:20.799Z,0.00
2018-05-01T04:28:20.810Z,0.00
2018-05-01T04:29:20.829Z,0.00
2018-05-01T04:30:20.842Z,0.00
2018-05-01T04:31:20.868Z,0.00
2018-05-01T04:32:20.883Z,0.00
2018-05-01T04:33:20.900Z,0.00
2018-05-01T04:34:20.922Z,0.00
2018-05-01T04:35:20.935Z,0.00
2018-05-01T04:36:20.980Z,0.00
2018-05-01T04:37:20.978Z,0.00
2018-05-01T04:38:20.991Z,0.00
2018-05-01T04:39:21.010Z,0.00
2018-05-01T04:40:21.029Z,0.00
2018-05-01T04:41:21.050Z,0.00
2018-05-01T04:42:21.068Z,0.00
2018-05-01T04:43:21.083Z,0.00
2018-05-01T04:44:21.105Z,0.00
2018-05-01T04:45:21.120Z,0.00
2018-05-01T04:46:21.141Z,0.00
2018-05-01T04:47:21.158Z,0.00
2018-05-01T04:48:21.177Z,0.00
2018-05-01T04:49:21.208Z,0.00
2018-05-01T04:50:21.224Z,0.00
2018-05-01T04:51:21.244Z,0.00
2018-05-01T04:52:21.247Z,0.00
2018-05-01T04:53:21.270Z,0.00
2018-05-01T04:54:21.293Z,0.00
2018-05-01T04:55:21.299Z,0.00
2018-05-01T04:56:21.325Z,0.00
2018-05-01T04:57:21.342Z,0.00
2018-05-01T04:58:21.384Z,0.00
2018-05-01T04:59:21.379Z,0.00
2018-05-01T05:00:21.400Z,0.00
2018-05-01T05:01:21.417Z,0.00
2018-05-01T05:02:21.429Z,0.00
2018-05-01T05:03:21.453Z,0.00
2018-05-01T05:04:21.468Z,0.00
2018-05-01T05:05:21.486Z,0.00
2018-05-01T05:06:21.512Z,0.00
2018-05-01T05:07:21.526Z,0.00
2018-05-01T05:08:21.550Z,0.00
2018-05-01T05:09:21.568Z,0.00
2018-05-01T05:10:21.588Z,0.00
2018-05-01T05:11:21.604Z,0.00
2018-05-01T05:12:21.618Z,0.00
2018-05-01T05:13:21.646Z,0.00
2018-05-01T05:14:21.654Z,0.00
2018-05-01T05:15:21.677Z,0.00
2018-05-01T05:16:21.695Z,0.00
2018-05-01T05:17:21.712Z,0.00
2018-05-01T05:18:21.730Z,0.00
2018-05-01T05:19:21.747Z,0.00
2018-05-01T05:20:21.764Z,0.00
2018-05-01T05:21:21.785Z,0.00
2018-05-01T05:22:21.796Z,0.00
2018-05-01T05:23:21.817Z,0.00
2018-05-01T05:24:21.839Z,0.00
2018-05-01T05:25:21.858Z,0.00
2018-05-01T05:26:21.874Z,0.00
2018-05-01T05:27:21.889Z,0.00
2018-05-01T05:28:21.909Z,0.00
2018-05-01T05:29:21.928Z,0.00
2018-05-01T05:30:21.954Z,0.00
2018-05-01T05:31:21.969Z,0.00
2018-05-01T05:32:21.979Z,0.00
2018-05-01T05:33:21.994Z,0.00
2018-05-01T05:34:22.023Z,0.00
2018-05-01T05:35:22.037Z,0.00
2018-05-01T05:36:22.101Z,0.00
2018-05-01T05:37:22.074Z,0.00
2018-05-01T05:38:22.097Z,0.00
2018-05-01T05:39:22.109Z,0.00
2018-05-01T05:40:22.126Z,0.00
2018-05-01T05:41:22.150Z,0.00
2018-05-01T05:42:22.168Z,0.00
2018-05-01T05:43:22.182Z,0.00
2018-05-01T05:44:22.204Z,0.00
2018-05-01T05:45:22.217Z,0.00
2018-05-01T05:46:22.239Z,0.00
2018-05-01T05:47:22.295Z,0.00
2018-05-01T05:48:22.273Z,0.00
2018-05-01T05:49:22.293Z,0.00
2018-05-01T05:50:22.317Z,0.00
2018-05-01T05:51:22.328Z,5.63
2018-05-01T05:52:22.347Z,5.63
2018-05-01T05:53:22.364Z,5.63
2018-05-01T05:54:22.388Z,5.63
2018-05-01T05:55:22.397Z,5.63
2018-05-01T05:56:22.419Z,5.63
2018-05-01T05:57:22.431Z,5.63
2018-05-01T05:58:22.452Z,5.63
2018-05-01T05:59:22.483Z,5.63
2018-05-01T06:00:22.495Z,5.63
2018-05-01T06:01:22.509Z,11.25
2018-05-01T06:02:22.530Z,5.63
2018-05-01T06:03:22.549Z,5.63
2018-05-01T06:04:22.571Z,5.63
2018-05-01T06:05:22.587Z,5.63
2018-05-01T06:06:22.606Z,5.63
2018-05-01T06:07:22.622Z,5.63
2018-05-01T06:08:22.633Z,5.63
2018-05-01T06:09:22.661Z,5.63
2018-05-01T06:10:22.673Z,5.63
2018-05-01T06:11:22.729Z,5.63
2018-05-01T06:12:22.715Z,5.63
2018-05-01T06:13:22.758Z,11.25
2018-05-01T06:14:22.750Z,11.25
2018-05-01T06:15:22.846Z,11.25
2018-05-01T06:16:22.785Z,11.25
2018-05-01T06:17:22.805Z,11.25
2018-05-01T06:18:22.822Z,11.25
2018-05-01T06:19:22.841Z,11.25
2018-05-01T06:20:22.863Z,11.25
2018-05-01T06:21:22.882Z,11.25
2018-05-01T06:22:22.898Z,11.25
2018-05-01T06:23:22.919Z,11.25
2018-05-01T06:24:22.936Z,11.25
2018-05-01T06:25:22.955Z,11.25
2018-05-01T06:26:22.973Z,5.63
2018-05-01T06:27:22.990Z,5.63
2018-05-01T06:28:23.009Z,5.63
2018-05-01T06:29:23.210Z,5.63
2018-05-01T06:30:23.053Z,5.63
2018-05-01T06:31:23.149Z,5.63
2018-05-01T06:32:23.083Z,5.63
2018-05-01T06:33:23.107Z,11.25
2018-05-01T06:34:23.119Z,11.25
2018-05-01T06:35:23.145Z,11.25
2018-05-01T06:36:23.161Z,11.25
2018-05-01T06:37:23.204Z,11.25
2018-05-01T06:38:23.200Z,16.88
2018-05-01T06:39:23.233Z,16.88
2018-05-01T06:40:23.253Z,22.50
2018-05-01T06:41:23.253Z,22.50
2018-05-01T06:42:23.270Z,16.88
2018-05-01T06:43:23.293Z,22.50
2018-05-01T06:44:23.310Z,16.88
2018-05-01T06:45:23.330Z,16.88
2018-05-01T06:46:23.348Z,16.88
2018-05-01T06:47:23.381Z,11.25
2018-05-01T06:48:23.442Z,11.25
2018-05-01T06:49:23.406Z,11.25
2018-05-01T06:50:23.420Z,11.25
2018-05-01T06:51:23.436Z,11.25
2018-05-01T06:52:23.463Z,11.25
2018-05-01T06:53:23.487Z,11.25
2018-05-01T06:54:23.497Z,11.25
2018-05-01T06:55:23.516Z,11.25
2018-05-01T06:56:23.534Z,11.25
2018-05-01T06:57:23.556Z,16.88
2018-05-01T06:58:23.567Z,16.88
2018-05-01T06:59:23.599Z,16.88
2018-05-01T07:00:23.611Z,22.50
2018-05-01T07:01:23.630Z,22.50
2018-05-01T07:02:23.646Z,22.50
2018-05-01T07:03:23.666Z,16.88
2018-05-01T07:04:23.782Z,22.50
2018-05-01T07:05:23.702Z,16.88
2018-05-01T07:06:23.722Z,22.50
2018-05-01T07:07:23.737Z,22.50
2018-05-01T07:08:23.763Z,22.50
2018-05-01T07:09:23.780Z,22.50
2018-05-01T07:10:23.888Z,22.50
2018-05-01T07:11:23.814Z,22.50
2018-05-01T07:12:23.835Z,22.50
2018-05-01T07:13:23.853Z,22.50
2018-05-01T07:14:23.871Z,22.50
2018-05-01T07:15:23.887Z,22.50
2018-05-01T07:16:23.903Z,22.50
2018-05-01T07:17:23.920Z,22.50
2018-05-01T07:18:23.943Z,22.50
2018-05-01T07:19:23.964Z,22.50
2018-05-01T07:20:23.991Z,22.50
2018-05-01T07:21:24.011Z,22.50
2018-05-01T07:22:24.020Z,22.50
2018-05-01T07:23:24.036Z,22.50
2018-05-01T07:24:24.054Z,16.88
2018-05-01T07:25:24.075Z,16.88
2018-05-01T07:26:24.094Z,16.88
2018-05-01T07:27:24.133Z,16.88
2018-05-01T07:28:24.131Z,16.88
2018-05-01T07:29:24.149Z,16.88
2018-05-01T07:30:24.169Z,16.88
2018-05-01T07:31:24.190Z,16.88
2018-05-01T07:32:24.215Z,16.88
2018-05-01T07:33:24.222Z,16.88
2018-05-01T07:34:24.242Z,16.88
2018-05-01T07:35:24.269Z,16.88
2018-05-01T07:36:24.282Z,16.88
2018-05-01T07:37:24.304Z,16.88
2018-05-01T07:38:24.327Z,16.88
2018-05-01T07:39:24.340Z,16.88
2018-05-01T07:40:24.358Z,16.88
2018-05-01T07:41:24.423Z,16.88
2018-05-01T07:42:24.389Z,16.88
2018-05-01T07:43:24.415Z,16.88
2018-05-01T07:44:24.434Z,16.88
2018-05-01T07:45:24.454Z,16.88
2018-05-01T07:46:24.464Z,16.88
2018-05-01T07:47:24.487Z,16.88
2018-05-01T07:48:24.510Z,16.88
2018-05-01T07:49:24.530Z,16.88
2018-05-01T07:50:24.551Z,16.88
2018-05-01T07:51:24.561Z,16.88
2018-05-01T07:52:24.583Z,16.88
2018-05-01T07:53:24.607Z,16.88
2018-05-01T07:54:24.618Z,16.88
2018-05-01T07:55:24.641Z,16.88
2018-05-01T07:56:24.655Z,16.88
2018-05-01T07:57:24.679Z,16.88
2018-05-01T07:58:24.694Z,22.50
2018-05-01T07:59:24.719Z,22.50
2018-05-01T08:00:24.814Z,22.50
2018-05-01T08:01:24.749Z,22.50
2018-05-01T08:02:24.774Z,22.50
2018-05-01T08:03:24.790Z,22.50
2018-05-01T08:04:24.809Z,22.50
2018-05-01T08:05:24.825Z,28.13
2018-05-01T08:06:24.854Z,28.13
2018-05-01T08:07:24.866Z,28.13
2018-05-01T08:08:24.889Z,28.13
2018-05-01T08:09:24.908Z,28.13
2018-05-01T08:10:24.931Z,22.50
2018-05-01T08:11:24.947Z,28.13
2018-05-01T08:12:24.960Z,28.13
2018-05-01T08:13:25.000Z,28.13
2018-05-01T08:14:24.996Z,28.13
2018-05-01T08:15:25.028Z,28.13
2018-05-01T08:16:25.032Z,28.13
2018-05-01T08:17:25.053Z,22.50
2018-05-01T08:18:25.079Z,28.13
2018-05-01T08:19:25.089Z,28.13
2018-05-01T08:20:25.114Z,28.13
2018-05-01T08:21:25.131Z,28.13
2018-05-01T08:22:25.152Z,28.13
2018-05-01T08:23:25.168Z,28.13
2018-05-01T08:24:25.217Z,28.13
2018-05-01T08:25:25.207Z,28.13
2018-05-01T08:26:25.236Z,28.13
2018-05-01T08:27:25.243Z,33.75
2018-05-01T08:28:25.264Z,33.75
2018-05-01T08:29:25.284Z,33.75
2018-05-01T08:30:25.330Z,33.75
2018-05-01T08:31:25.322Z,28.13
2018-05-01T08:32:25.336Z,28.13
2018-05-01T08:33:25.361Z,28.13
2018-05-01T08:34:25.390Z,28.13
2018-05-01T08:35:25.397Z,28.13
2018-05-01T08:36:25.420Z,28.13
2018-05-01T08:37:25.443Z,28.13
2018-05-01T08:38:25.459Z,28.13
2018-05-01T08:39:25.516Z,28.13
2018-05-01T08:40:25.542Z,28.13
2018-05-01T08:41:25.516Z,28.13
2018-05-01T08:42:25.531Z,28.13
2018-05-01T08:43:25.572Z,28.13
2018-05-01T08:44:25.581Z,28.13
2018-05-01T08:45:25.742Z,33.75
2018-05-01T08:46:25.617Z,28.13
2018-05-01T08:47:25.638Z,28.13
2018-05-01T08:48:25.662Z,22.50
2018-05-01T08:49:25.701Z,22.50
2018-05-01T08:50:25.687Z,22.50
2018-05-01T08:51:25.711Z,16.88
2018-05-01T08:52:25.729Z,16.88
2018-05-01T08:53:25.749Z,16.88
2018-05-01T08:54:25.767Z,16.88
2018-05-01T08:55:25.783Z,22.50
2018-05-01T08:56:25.800Z,22.50
2018-05-01T08:57:25.862Z,22.50
2018-05-01T08:58:25.848Z,22.50
2018-05-01T08:59:25.863Z,22.50
2018-05-01T09:00:25.883Z,22.50
2018-05-01T09:01:25.902Z,22.50
2018-05-01T09:02:25.922Z,22.50
2018-05-01T09:03:25.939Z,22.50
2018-05-01T09:04:25.957Z,22.50
2018-05-01T09:05:25.974Z,22.50
2018-05-01T09:06:26.013Z,22.50
2018-05-01T09:07:26.013Z,22.50
2018-05-01T09:08:26.032Z,22.50
2018-05-01T09:09:26.079Z,22.50
2018-05-01T09:10:26.066Z,22.50
2018-05-01T09:11:26.096Z,22.50
2018-05-01T09:12:26.109Z,22.50
2018-05-01T09:13:26.127Z,28.13
2018-05-01T09:14:26.147Z,28.13
2018-05-01T09:15:26.164Z,28.13
2018-05-01T09:16:26.177Z,28.13
2018-05-01T09:17:26.202Z,28.13
2018-05-01T09:18:26.227Z,28.13
2018-05-01T09:19:26.247Z,28.13
2018-05-01T09:20:26.260Z,33.75
2018-05-01T09:21:26.281Z,33.75
2018-05-01T09:22:26.293Z,33.75
2018-05-01T09:23:26.314Z,33.75
2018-05-01T09:24:26.343Z,33.75
2018-05-01T09:25:26.359Z,33.75
2018-05-01T09:26:26.382Z,33.75
2018-05-01T09:27:26.395Z,28.13
2018-05-01T09:28:26.412Z,33.75
2018-05-01T09:29:26.430Z,28.13
2018-05-01T09:30:26.448Z,28.13
2018-05-01T09:31:26.466Z,28.13
2018-05-01T09:32:26.494Z,28.13
2018-05-01T09:33:26.507Z,28.13
2018-05-01T09:34:26.523Z,28.13
2018-05-01T09:35:26.549Z,33.75
2018-05-01T09:36:26.564Z,39.38
2018-05-01T09:37:26.584Z,28.13
2018-05-01T09:38:26.604Z,33.75
2018-05-01T09:39:26.623Z,33.75
2018-05-01T09:40:26.638Z,33.75
2018-05-01T09:41:26.672Z,33.75
2018-05-01T09:42:26.696Z,33.75
2018-05-01T09:43:26.694Z,33.75
2018-05-01T09:44:26.720Z,33.75
2018-05-01T09:45:26.738Z,33.75
2018-05-01T09:46:26.757Z,33.75
2018-05-01T09:47:26.771Z,33.75
2018-05-01T09:48:26.794Z,33.75
2018-05-01T09:49:26.824Z,33.75
2018-05-01T09:50:26.835Z,33.75
2018-05-01T09:51:26.852Z,33.75
2018-05-01T09:52:26.875Z,33.75
2018-05-01T09:53:26.920Z,33.75
2018-05-01T09:54:26.908Z,33.75
2018-05-01T09:55:26.930Z,33.75
2018-05-01T09:56:26.949Z,33.75
2018-05-01T09:57:26.966Z,33.75
2018-05-01T09:58:26.987Z,33.75
2018-05-01T09:59:27.005Z,33.75
2018-05-01T10:00:27.024Z,28.13
2018-05-01T10:01:27.052Z,28.13
2018-05-01T10:02:27.067Z,28.13
2018-05-01T10:03:27.088Z,28.13
2018-05-01T10:04:27.104Z,28.13
2018-05-01T10:05:27.130Z,28.13
2018-05-01T10:06:27.148Z,33.75
2018-05-01T10:07:27.165Z,33.75
2018-05-01T10:08:27.185Z,39.38
2018-05-01T10:09:27.203Z,45.00
2018-05-01T10:10:27.243Z,33.75
2018-05-01T10:11:27.244Z,33.75
2018-05-01T10:12:27.259Z,33.75
2018-05-01T10:13:27.286Z,33.75
2018-05-01T10:14:27.305Z,28.13
2018-05-01T10:15:27.322Z,28.13
2018-05-01T10:16:27.363Z,22.50
2018-05-01T10:17:27.374Z,22.50
2018-05-01T10:18:27.380Z,22.50
2018-05-01T10:19:27.423Z,22.50
2018-05-01T10:20:27.432Z,22.50
2018-05-01T10:21:27.441Z,28.13
2018-05-01T10:22:27.459Z,28.13
2018-05-01T10:23:27.478Z,28.13
2018-05-01T10:24:27.495Z,33.75
2018-05-01T10:25:27.511Z,33.75
2018-05-01T10:26:27.534Z,33.75
2018-05-01T10:27:27.560Z,33.75
2018-05-01T10:28:27.573Z,33.75
2018-05-01T10:29:27.601Z,33.75
2018-05-01T10:30:27.606Z,33.75
2018-05-01T10:31:27.636Z,28.13
2018-05-01T10:32:27.647Z,28.13
2018-05-01T10:33:27.669Z,33.75
2018-05-01T10:34:27.684Z,33.75
2018-05-01T10:35:27.706Z,39.38
2018-05-01T10:36:27.727Z,39.38
2018-05-01T10:37:27.758Z,33.75
2018-05-01T10:38:27.817Z,33.75
2018-05-01T10:39:27.786Z,33.75
2018-05-01T10:40:27.807Z,33.75
2018-05-01T10:41:27.826Z,28.13
2018-05-01T10:42:27.847Z,28.13
2018-05-01T10:43:27.859Z,28.13
2018-05-01T10:44:27.882Z,28.13
2018-05-01T10:45:27.913Z,33.75
2018-05-01T10:46:27.935Z,39.38
2018-05-01T10:47:27.954Z,39.38
2018-05-01T10:48:27.964Z,39.38
2018-05-01T10:49:28.049Z,33.75
2018-05-01T10:50:28.010Z,39.38
2018-05-01T10:51:28.023Z,28.13
2018-05-01T10:52:28.043Z,28.13
2018-05-01T10:53:28.068Z,33.75
2018-05-01T10:54:28.088Z,28.13
2018-05-01T10:55:28.098Z,22.50
2018-05-01T10:56:28.121Z,16.88
2018-05-01T10:57:28.140Z,16.88
2018-05-01T10:58:28.172Z,16.88
2018-05-01T10:59:28.181Z,22.50
2018-05-01T11:00:28.274Z,28.13
2018-05-01T11:01:28.219Z,28.13
2018-05-01T11:02:28.241Z,28.13
2018-05-01T11:03:28.259Z,16.88
2018-05-01T11:04:28.280Z,16.88
2018-05-01T11:05:28.301Z,22.50
2018-05-01T11:06:28.336Z,28.13
2018-05-01T11:07:28.337Z,22.50
2018-05-01T11:08:28.407Z,39.38
2018-05-01T11:09:28.376Z,45.00
2018-05-01T11:10:28.398Z,45.00
2018-05-01T11:11:28.416Z,45.00
2018-05-01T11:12:28.436Z,45.00
2018-05-01T11:13:28.463Z,39.38
2018-05-01T11:14:28.479Z,33.75
2018-05-01T11:15:28.497Z,28.13
2018-05-01T11:16:28.520Z,22.50
2018-05-01T11:17:28.559Z,22.50
2018-05-01T11:18:28.559Z,22.50
2018-05-01T11:19:28.580Z,22.50
2018-05-01T11:20:28.598Z,28.13
2018-05-01T11:21:28.617Z,28.13
2018-05-01T11:22:28.640Z,22.50
2018-05-01T11:23:28.659Z,28.13
2018-05-01T11:24:28.676Z,28.13
2018-05-01T11:25:28.692Z,33.75
2018-05-01T11:26:28.720Z,33.75
2018-05-01T11:27:28.737Z,33.75
2018-05-01T11:28:28.764Z,39.38
2018-05-01T11:29:28.792Z,33.75
2018-05-01T11:30:28.798Z,45.00
2018-05-01T11:31:28.823Z,45.00
2018-05-01T11:32:28.843Z,45.00
2018-05-01T11:33:28.864Z,45.00
2018-05-01T11:34:28.890Z,45.00
2018-05-01T11:35:28.903Z,50.63
2018-05-01T11:36:28.927Z,39.38
2018-05-01T11:37:28.938Z,45.00
2018-05-01T11:38:28.966Z,33.75
2018-05-01T11:39:28.991Z,39.38
2018-05-01T11:40:29.012Z,28.13
2018-05-01T11:41:29.026Z,16.88
2018-05-01T11:42:29.056Z,16.88
2018-05-01T11:43:29.079Z,16.88
2018-05-01T11:44:29.090Z,16.88
2018-05-01T11:45:29.109Z,16.88
2018-05-01T11:46:29.198Z,16.88
2018-05-01T11:47:29.153Z,16.88
2018-05-01T11:48:29.172Z,22.50
2018-05-01T11:49:29.184Z,33.75
2018-05-01T11:50:29.217Z,33.75
2018-05-01T11:51:29.333Z,39.38
2018-05-01T11:52:29.247Z,28.13
2018-05-01T11:53:29.267Z,28.13
2018-05-01T11:54:29.292Z,39.38
2018-05-01T11:55:29.313Z,45.00
2018-05-01T11:56:29.335Z,39.38
2018-05-01T11:57:29.351Z,39.38
2018-05-01T11:58:29.375Z,39.38
2018-05-01T11:59:29.400Z,33.75
2018-05-01T12:00:29.447Z,39.38
2018-05-01T12:01:29.442Z,33.75
2018-05-01T12:02:29.466Z,33.75
2018-05-01T12:03:29.472Z,33.75
2018-05-01T12:04:29.588Z,28.13
2018-05-01T12:05:29.515Z,33.75
2018-05-01T12:06:29.545Z,39.38
2018-05-01T12:07:29.557Z,39.38
2018-05-01T12:08:29.580Z,45.00
2018-05-01T12:09:29.599Z,45.00
2018-05-01T12:10:29.622Z,50.63
2018-05-01T12:11:29.637Z,50.63
2018-05-01T12:12:29.667Z,45.00
2018-05-01T12:13:29.683Z,50.63
2018-05-01T12:14:29.708Z,45.00
2018-05-01T12:15:29.719Z,39.38
2018-05-01T12:16:29.747Z,39.38
2018-05-01T12:17:29.764Z,39.38
2018-05-01T12:18:29.847Z,45.00
2018-05-01T12:19:29.800Z,45.00
2018-05-01T12:20:29.829Z,33.75
2018-05-01T12:21:29.844Z,33.75
2018-05-01T12:22:29.881Z,33.75
2018-05-01T12:23:29.892Z,28.13
2018-05-01T12:24:29.916Z,28.13
2018-05-01T12:25:29.936Z,28.13
2018-05-01T12:26:29.959Z,33.75
2018-05-01T12:27:29.971Z,28.13
2018-05-01T12:28:30.160Z,39.38
2018-05-01T12:29:30.009Z,45.00
2018-05-01T12:30:30.046Z,50.63
2018-05-01T12:31:30.060Z,50.63
2018-05-01T12:32:30.083Z,50.63
2018-05-01T12:33:30.102Z,50.63
2018-05-01T12:34:30.126Z,45.00
2018-05-01T12:35:30.146Z,45.00
2018-05-01T12:36:30.221Z,45.00
2018-05-01T12:37:30.183Z,45.00
2018-05-01T12:38:30.209Z,45.00
2018-05-01T12:39:30.227Z,50.63
2018-05-01T12:40:30.252Z,50.63
2018-05-01T12:41:30.269Z,50.63
2018-05-01T12:42:30.385Z,50.63
2018-05-01T12:43:30.322Z,45.00
2018-05-01T12:44:30.340Z,45.00
2018-05-01T12:45:30.360Z,39.38
2018-05-01T12:46:30.382Z,45.00
2018-05-01T12:47:30.410Z,39.38
2018-05-01T12:48:30.445Z,39.38
2018-05-01T12:49:30.489Z,39.38
2018-05-01T12:50:30.470Z,45.00
2018-05-01T12:51:30.495Z,45.00
2018-05-01T12:52:30.509Z,45.00
2018-05-01T12:53:30.531Z,45.00
2018-05-01T12:54:30.555Z,45.00
2018-05-01T12:55:30.570Z,45.00
2018-05-01T12:56:30.600Z,45.00
2018-05-01T12:57:30.651Z,56.25
2018-05-01T12:58:30.736Z,50.63
2018-05-01T12:59:30.664Z,50.63
2018-05-01T13:00:30.759Z,50.63
2018-05-01T13:01:30.718Z,50.63
2018-05-01T13:02:30.728Z,50.63
2018-05-01T13:03:30.760Z,39.38
2018-05-01T13:04:30.780Z,50.63